sensor_id;sensor_type;location;lat;lon;timestamp;P1;durP1;ratioP1;P2;durP2;ratioP2
75550;SDS011;64135;53.130;17.972;2022-10-31T00:01:37;13.70;;;10.40;;
75550;SDS011;64135;53.130;17.972;2022-10-31T00:04:05;12.20;;;9.10;;
75550;SDS011;64135;53.130;17.972;2022-10-31T00:06:32;15.10;;;9.90;;
75550;SDS011;64135;53.130;17.972;2022-10-31T00:08:59;13.00;;;9.00;;
75550;SDS011;64135;53.130;17.972;2022-10-31T00:11:27;10.80;;;8.50;;
75550;SDS011;64135;53.130;17.972;2022-10-31T00:13:54;15.20;;;10.40;;
75550;SDS011;64135;53.130;17.972;2022-10-31T00:16:22;16.30;;;10.30;;
75550;SDS011;64135;53.130;17.972;2022-10-31T00:18:50;16.80;;;11.00;;
75550;SDS011;64135;53.130;17.972;2022-10-31T00:21:17;15.20;;;10.30;;
75550;SDS011;64135;53.130;17.972;2022-10-31T00:23:44;13.80;;;9.60;;
75550;SDS011;64135;53.130;17.972;2022-10-31T00:26:10;16.70;;;10.30;;
75550;SDS011;64135;53.130;17.972;2022-10-31T00:28:37;19.90;;;10.00;;
75550;SDS011;64135;53.130;17.972;2022-10-31T00:31:06;13.20;;;9.80;;
75550;SDS011;64135;53.130;17.972;2022-10-31T00:33:34;13.90;;;9.20;;
75550;SDS011;64135;53.130;17.972;2022-10-31T00:36:03;14.90;;;8.80;;
75550;SDS011;64135;53.130;17.972;2022-10-31T00:38:31;12.60;;;9.00;;
75550;SDS011;64135;53.130;17.972;2022-10-31T00:40:57;16.60;;;10.80;;
75550;SDS011;64135;53.130;17.972;2022-10-31T00:43:24;14.60;;;9.80;;
75550;SDS011;64135;53.130;17.972;2022-10-31T00:45:51;14.20;;;9.80;;
75550;SDS011;64135;53.130;17.972;2022-10-31T00:48:17;11.00;;;8.90;;
75550;SDS011;64135;53.130;17.972;2022-10-31T00:50:44;13.40;;;9.90;;
75550;SDS011;64135;53.130;17.972;2022-10-31T00:53:11;13.20;;;9.80;;
75550;SDS011;64135;53.130;17.972;2022-10-31T00:55:38;11.40;;;9.10;;
75550;SDS011;64135;53.130;17.972;2022-10-31T00:58:04;11.10;;;8.30;;
75550;SDS011;64135;53.130;17.972;2022-10-31T01:00:32;12.40;;;9.00;;
75550;SDS011;64135;53.130;17.972;2022-10-31T01:02:59;16.80;;;11.80;;
75550;SDS011;64135;53.130;17.972;2022-10-31T01:05:26;12.80;;;10.40;;
75550;SDS011;64135;53.130;17.972;2022-10-31T01:07:52;14.60;;;11.00;;
75550;SDS011;64135;53.130;17.972;2022-10-31T01:10:19;12.90;;;10.10;;
75550;SDS011;64135;53.130;17.972;2022-10-31T01:12:46;11.60;;;9.20;;
75550;SDS011;64135;53.130;17.972;2022-10-31T01:15:17;13.30;;;9.80;;
75550;SDS011;64135;53.130;17.972;2022-10-31T01:17:45;12.40;;;9.40;;
75550;SDS011;64135;53.130;17.972;2022-10-31T01:20:12;12.90;;;9.40;;
75550;SDS011;64135;53.130;17.972;2022-10-31T01:22:40;14.20;;;9.70;;
75550;SDS011;64135;53.130;17.972;2022-10-31T01:25:08;14.30;;;10.70;;
75550;SDS011;64135;53.130;17.972;2022-10-31T01:27:35;13.00;;;9.70;;
75550;SDS011;64135;53.130;17.972;2022-10-31T01:30:02;14.40;;;10.40;;
75550;SDS011;64135;53.130;17.972;2022-10-31T01:32:30;12.60;;;9.70;;
75550;SDS011;64135;53.130;17.972;2022-10-31T01:34:58;13.10;;;10.20;;
75550;SDS011;64135;53.130;17.972;2022-10-31T01:37:24;12.40;;;9.90;;
75550;SDS011;64135;53.130;17.972;2022-10-31T01:39:51;12.60;;;9.80;;
75550;SDS011;64135;53.130;17.972;2022-10-31T01:42:18;13.90;;;10.20;;
75550;SDS011;64135;53.130;17.972;2022-10-31T01:44:54;14.80;;;10.20;;
75550;SDS011;64135;53.130;17.972;2022-10-31T01:47:25;15.80;;;10.70;;
75550;SDS011;64135;53.130;17.972;2022-10-31T01:49:57;17.00;;;11.50;;
75550;SDS011;64135;53.130;17.972;2022-10-31T01:55:13;14.10;;;10.40;;
75550;SDS011;64135;53.130;17.972;2022-10-31T01:57:45;12.30;;;9.70;;
75550;SDS011;64135;53.130;17.972;2022-10-31T02:00:13;13.10;;;9.30;;
75550;SDS011;64135;53.130;17.972;2022-10-31T02:02:41;12.00;;;9.10;;
75550;SDS011;64135;53.130;17.972;2022-10-31T02:05:09;10.90;;;7.30;;
75550;SDS011;64135;53.130;17.972;2022-10-31T02:08:00;13.60;;;9.40;;
75550;SDS011;64135;53.130;17.972;2022-10-31T02:10:30;12.80;;;8.80;;
75550;SDS011;64135;53.130;17.972;2022-10-31T02:12:58;13.50;;;9.30;;
75550;SDS011;64135;53.130;17.972;2022-10-31T02:15:27;11.70;;;8.60;;
75550;SDS011;64135;53.130;17.972;2022-10-31T02:17:54;13.10;;;8.90;;
75550;SDS011;64135;53.130;17.972;2022-10-31T02:20:21;10.90;;;8.50;;
75550;SDS011;64135;53.130;17.972;2022-10-31T02:34:27;11.80;;;8.60;;
75550;SDS011;64135;53.130;17.972;2022-10-31T02:37:06;13.00;;;8.30;;
75550;SDS011;64135;53.130;17.972;2022-10-31T02:39:50;16.00;;;9.30;;
75550;SDS011;64135;53.130;17.972;2022-10-31T02:43:02;13.50;;;8.80;;
75550;SDS011;64135;53.130;17.972;2022-10-31T02:45:55;14.30;;;9.40;;
75550;SDS011;64135;53.130;17.972;2022-10-31T02:48:28;13.90;;;8.60;;
75550;SDS011;64135;53.130;17.972;2022-10-31T02:50:59;12.10;;;9.10;;
75550;SDS011;64135;53.130;17.972;2022-10-31T02:53:31;12.80;;;8.80;;
75550;SDS011;64135;53.130;17.972;2022-10-31T02:56:22;15.60;;;8.80;;
75550;SDS011;64135;53.130;17.972;2022-10-31T02:58:49;14.80;;;8.80;;
75550;SDS011;64135;53.130;17.972;2022-10-31T03:01:38;11.90;;;8.10;;
75550;SDS011;64135;53.130;17.972;2022-10-31T03:06:57;13.30;;;9.70;;
75550;SDS011;64135;53.130;17.972;2022-10-31T03:09:48;14.30;;;9.90;;
75550;SDS011;64135;53.130;17.972;2022-10-31T03:12:35;12.60;;;9.60;;
75550;SDS011;64135;53.130;17.972;2022-10-31T03:17:35;12.70;;;9.30;;
75550;SDS011;64135;53.130;17.972;2022-10-31T03:20:05;12.00;;;8.10;;
75550;SDS011;64135;53.130;17.972;2022-10-31T03:22:33;14.30;;;9.00;;
75550;SDS011;64135;53.130;17.972;2022-10-31T03:25:01;15.10;;;9.10;;
75550;SDS011;64135;53.130;17.972;2022-10-31T03:27:30;17.40;;;10.90;;
75550;SDS011;64135;53.130;17.972;2022-10-31T03:30:00;15.40;;;10.00;;
75550;SDS011;64135;53.130;17.972;2022-10-31T03:32:31;13.50;;;9.70;;
75550;SDS011;64135;53.130;17.972;2022-10-31T03:35:09;13.40;;;10.10;;
75550;SDS011;64135;53.130;17.972;2022-10-31T03:37:37;12.20;;;8.50;;
75550;SDS011;64135;53.130;17.972;2022-10-31T03:40:08;12.90;;;8.80;;
75550;SDS011;64135;53.130;17.972;2022-10-31T03:42:38;12.60;;;8.60;;
75550;SDS011;64135;53.130;17.972;2022-10-31T03:45:10;11.70;;;8.70;;
75550;SDS011;64135;53.130;17.972;2022-10-31T03:47:41;12.20;;;8.90;;
75550;SDS011;64135;53.130;17.972;2022-10-31T03:50:09;13.50;;;9.60;;
75550;SDS011;64135;53.130;17.972;2022-10-31T03:52:45;11.80;;;9.00;;
75550;SDS011;64135;53.130;17.972;2022-10-31T03:55:19;14.50;;;10.50;;
75550;SDS011;64135;53.130;17.972;2022-10-31T04:00:27;11.50;;;9.00;;
75550;SDS011;64135;53.130;17.972;2022-10-31T04:05:31;11.50;;;8.30;;
75550;SDS011;64135;53.130;17.972;2022-10-31T04:08:00;12.30;;;8.60;;
75550;SDS011;64135;53.130;17.972;2022-10-31T04:10:31;13.30;;;9.50;;
75550;SDS011;64135;53.130;17.972;2022-10-31T04:13:03;12.50;;;8.80;;
75550;SDS011;64135;53.130;17.972;2022-10-31T04:15:39;12.70;;;9.10;;
75550;SDS011;64135;53.130;17.972;2022-10-31T04:18:07;12.60;;;8.80;;
75550;SDS011;64135;53.130;17.972;2022-10-31T04:20:37;12.40;;;8.40;;
75550;SDS011;64135;53.130;17.972;2022-10-31T04:23:05;12.90;;;9.20;;
75550;SDS011;64135;53.130;17.972;2022-10-31T04:25:49;13.80;;;9.20;;
75550;SDS011;64135;53.130;17.972;2022-10-31T04:28:17;11.40;;;8.40;;
75550;SDS011;64135;53.130;17.972;2022-10-31T04:30:44;12.10;;;8.90;;
75550;SDS011;64135;53.130;17.972;2022-10-31T04:33:11;17.10;;;10.40;;
75550;SDS011;64135;53.130;17.972;2022-10-31T04:35:38;13.90;;;9.40;;
75550;SDS011;64135;53.130;17.972;2022-10-31T04:38:05;12.40;;;8.60;;
75550;SDS011;64135;53.130;17.972;2022-10-31T04:40:31;13.50;;;8.90;;
75550;SDS011;64135;53.130;17.972;2022-10-31T04:43:17;13.10;;;9.50;;
75550;SDS011;64135;53.130;17.972;2022-10-31T04:45:44;13.80;;;9.80;;
75550;SDS011;64135;53.130;17.972;2022-10-31T04:48:11;12.80;;;8.70;;
75550;SDS011;64135;53.130;17.972;2022-10-31T04:50:39;11.00;;;8.10;;
75550;SDS011;64135;53.130;17.972;2022-10-31T04:53:07;15.00;;;9.60;;
75550;SDS011;64135;53.130;17.972;2022-10-31T04:55:38;12.50;;;8.90;;
75550;SDS011;64135;53.130;17.972;2022-10-31T04:58:20;12.20;;;8.90;;
75550;SDS011;64135;53.130;17.972;2022-10-31T05:00:47;13.10;;;9.20;;
75550;SDS011;64135;53.130;17.972;2022-10-31T05:03:14;12.90;;;9.60;;
75550;SDS011;64135;53.130;17.972;2022-10-31T05:05:42;13.20;;;9.40;;
75550;SDS011;64135;53.130;17.972;2022-10-31T05:08:08;12.00;;;9.20;;
75550;SDS011;64135;53.130;17.972;2022-10-31T05:10:36;12.80;;;9.80;;
75550;SDS011;64135;53.130;17.972;2022-10-31T05:13:03;12.60;;;9.00;;
75550;SDS011;64135;53.130;17.972;2022-10-31T05:15:30;13.90;;;10.50;;
75550;SDS011;64135;53.130;17.972;2022-10-31T05:21:09;12.80;;;9.50;;
75550;SDS011;64135;53.130;17.972;2022-10-31T05:23:41;12.80;;;9.20;;
75550;SDS011;64135;53.130;17.972;2022-10-31T05:26:09;13.00;;;9.90;;
75550;SDS011;64135;53.130;17.972;2022-10-31T05:28:35;12.80;;;10.00;;
75550;SDS011;64135;53.130;17.972;2022-10-31T05:31:02;11.10;;;8.20;;
75550;SDS011;64135;53.130;17.972;2022-10-31T05:33:30;13.70;;;8.10;;
75550;SDS011;64135;53.130;17.972;2022-10-31T05:36:16;12.90;;;9.30;;
75550;SDS011;64135;53.130;17.972;2022-10-31T05:38:54;14.40;;;9.90;;
75550;SDS011;64135;53.130;17.972;2022-10-31T05:41:24;14.80;;;10.30;;
75550;SDS011;64135;53.130;17.972;2022-10-31T05:43:51;12.20;;;9.10;;
75550;SDS011;64135;53.130;17.972;2022-10-31T05:49:05;15.30;;;10.10;;
75550;SDS011;64135;53.130;17.972;2022-10-31T05:52:08;31.90;;;16.80;;
75550;SDS011;64135;53.130;17.972;2022-10-31T05:54:41;14.90;;;10.50;;
75550;SDS011;64135;53.130;17.972;2022-10-31T05:57:08;33.70;;;19.00;;
75550;SDS011;64135;53.130;17.972;2022-10-31T05:59:35;22.90;;;15.10;;
75550;SDS011;64135;53.130;17.972;2022-10-31T06:02:02;17.50;;;11.70;;
75550;SDS011;64135;53.130;17.972;2022-10-31T06:04:47;18.30;;;11.30;;
75550;SDS011;64135;53.130;17.972;2022-10-31T06:07:14;13.00;;;9.10;;
75550;SDS011;64135;53.130;17.972;2022-10-31T06:09:40;13.40;;;10.60;;
75550;SDS011;64135;53.130;17.972;2022-10-31T06:12:07;14.10;;;10.00;;
75550;SDS011;64135;53.130;17.972;2022-10-31T06:14:52;14.90;;;11.20;;
75550;SDS011;64135;53.130;17.972;2022-10-31T06:17:19;13.90;;;9.70;;
75550;SDS011;64135;53.130;17.972;2022-10-31T06:19:48;14.10;;;10.10;;
75550;SDS011;64135;53.130;17.972;2022-10-31T06:22:19;13.90;;;10.10;;
75550;SDS011;64135;53.130;17.972;2022-10-31T06:24:46;15.20;;;11.00;;
75550;SDS011;64135;53.130;17.972;2022-10-31T06:27:32;14.30;;;9.50;;
75550;SDS011;64135;53.130;17.972;2022-10-31T06:30:03;16.60;;;11.60;;
75550;SDS011;64135;53.130;17.972;2022-10-31T06:32:34;14.40;;;10.30;;
75550;SDS011;64135;53.130;17.972;2022-10-31T06:35:00;17.90;;;12.30;;
75550;SDS011;64135;53.130;17.972;2022-10-31T06:37:27;14.00;;;9.30;;
75550;SDS011;64135;53.130;17.972;2022-10-31T06:39:58;14.30;;;10.70;;
75550;SDS011;64135;53.130;17.972;2022-10-31T06:42:25;12.10;;;9.40;;
75550;SDS011;64135;53.130;17.972;2022-10-31T06:44:52;12.60;;;9.90;;
75550;SDS011;64135;53.130;17.972;2022-10-31T06:47:37;14.10;;;10.20;;
75550;SDS011;64135;53.130;17.972;2022-10-31T06:50:11;16.20;;;11.50;;
75550;SDS011;64135;53.130;17.972;2022-10-31T06:52:37;13.10;;;9.20;;
75550;SDS011;64135;53.130;17.972;2022-10-31T06:55:04;13.40;;;10.20;;
75550;SDS011;64135;53.130;17.972;2022-10-31T06:57:32;15.70;;;10.20;;
75550;SDS011;64135;53.130;17.972;2022-10-31T06:59:58;14.60;;;10.30;;
75550;SDS011;64135;53.130;17.972;2022-10-31T07:02:33;14.10;;;10.20;;
75550;SDS011;64135;53.130;17.972;2022-10-31T07:05:01;22.10;;;14.30;;
75550;SDS011;64135;53.130;17.972;2022-10-31T07:07:27;13.70;;;10.30;;
75550;SDS011;64135;53.130;17.972;2022-10-31T07:09:54;14.20;;;10.30;;
75550;SDS011;64135;53.130;17.972;2022-10-31T07:12:30;15.30;;;10.30;;
75550;SDS011;64135;53.130;17.972;2022-10-31T07:14:58;16.50;;;12.20;;
75550;SDS011;64135;53.130;17.972;2022-10-31T07:17:25;15.10;;;10.90;;
75550;SDS011;64135;53.130;17.972;2022-10-31T07:19:53;16.70;;;12.20;;
75550;SDS011;64135;53.130;17.972;2022-10-31T07:22:20;14.90;;;11.10;;
75550;SDS011;64135;53.130;17.972;2022-10-31T07:24:47;16.60;;;10.90;;
75550;SDS011;64135;53.130;17.972;2022-10-31T07:27:49;14.00;;;10.70;;
75550;SDS011;64135;53.130;17.972;2022-10-31T07:30:17;15.10;;;10.40;;
75550;SDS011;64135;53.130;17.972;2022-10-31T07:32:48;12.20;;;9.60;;
75550;SDS011;64135;53.130;17.972;2022-10-31T07:35:19;15.70;;;11.70;;
75550;SDS011;64135;53.130;17.972;2022-10-31T07:37:53;15.90;;;11.30;;
75550;SDS011;64135;53.130;17.972;2022-10-31T07:40:21;14.80;;;11.40;;
75550;SDS011;64135;53.130;17.972;2022-10-31T07:42:49;14.20;;;10.80;;
75550;SDS011;64135;53.130;17.972;2022-10-31T07:45:43;13.50;;;11.20;;
75550;SDS011;64135;53.130;17.972;2022-10-31T07:48:30;16.30;;;12.20;;
75550;SDS011;64135;53.130;17.972;2022-10-31T07:51:29;14.90;;;12.00;;
75550;SDS011;64135;53.130;17.972;2022-10-31T07:54:15;15.90;;;11.50;;
75550;SDS011;64135;53.130;17.972;2022-10-31T07:56:42;16.60;;;10.90;;
75550;SDS011;64135;53.130;17.972;2022-10-31T07:59:09;13.50;;;9.90;;
75550;SDS011;64135;53.130;17.972;2022-10-31T08:01:35;18.10;;;12.70;;
75550;SDS011;64135;53.130;17.972;2022-10-31T08:04:22;17.00;;;12.50;;
75550;SDS011;64135;53.130;17.972;2022-10-31T08:07:25;14.90;;;11.50;;
75550;SDS011;64135;53.130;17.972;2022-10-31T08:09:55;17.70;;;11.60;;
75550;SDS011;64135;53.130;17.972;2022-10-31T08:12:24;15.50;;;11.70;;
75550;SDS011;64135;53.130;17.972;2022-10-31T08:14:52;16.00;;;11.20;;
75550;SDS011;64135;53.130;17.972;2022-10-31T08:17:19;14.00;;;10.90;;
75550;SDS011;64135;53.130;17.972;2022-10-31T08:19:53;15.90;;;10.70;;
75550;SDS011;64135;53.130;17.972;2022-10-31T08:22:22;14.70;;;12.10;;
75550;SDS011;64135;53.130;17.972;2022-10-31T08:24:49;17.00;;;12.50;;
75550;SDS011;64135;53.130;17.972;2022-10-31T08:27:16;14.90;;;10.50;;
75550;SDS011;64135;53.130;17.972;2022-10-31T08:29:43;14.40;;;11.10;;
75550;SDS011;64135;53.130;17.972;2022-10-31T08:32:10;15.20;;;11.50;;
75550;SDS011;64135;53.130;17.972;2022-10-31T08:34:55;14.00;;;11.00;;
75550;SDS011;64135;53.130;17.972;2022-10-31T08:37:41;13.20;;;10.50;;
75550;SDS011;64135;53.130;17.972;2022-10-31T08:40:08;13.90;;;11.10;;
75550;SDS011;64135;53.130;17.972;2022-10-31T08:42:35;16.70;;;12.40;;
75550;SDS011;64135;53.130;17.972;2022-10-31T08:45:03;12.50;;;9.90;;
75550;SDS011;64135;53.130;17.972;2022-10-31T08:47:31;13.20;;;10.50;;
75550;SDS011;64135;53.130;17.972;2022-10-31T08:49:58;20.00;;;12.20;;
75550;SDS011;64135;53.130;17.972;2022-10-31T08:52:25;13.80;;;10.30;;
75550;SDS011;64135;53.130;17.972;2022-10-31T08:54:58;12.00;;;9.70;;
75550;SDS011;64135;53.130;17.972;2022-10-31T08:57:43;12.50;;;11.10;;
75550;SDS011;64135;53.130;17.972;2022-10-31T09:00:11;13.40;;;10.60;;
75550;SDS011;64135;53.130;17.972;2022-10-31T09:03:01;15.40;;;10.50;;
75550;SDS011;64135;53.130;17.972;2022-10-31T09:05:30;14.20;;;10.50;;
75550;SDS011;64135;53.130;17.972;2022-10-31T09:07:58;15.40;;;10.90;;
75550;SDS011;64135;53.130;17.972;2022-10-31T09:10:25;10.50;;;8.30;;
75550;SDS011;64135;53.130;17.972;2022-10-31T09:13:03;13.50;;;10.50;;
75550;SDS011;64135;53.130;17.972;2022-10-31T09:16:11;14.40;;;10.90;;
75550;SDS011;64135;53.130;17.972;2022-10-31T09:18:38;14.40;;;10.30;;
75550;SDS011;64135;53.130;17.972;2022-10-31T09:21:04;14.00;;;10.70;;
75550;SDS011;64135;53.130;17.972;2022-10-31T09:23:31;16.30;;;11.20;;
75550;SDS011;64135;53.130;17.972;2022-10-31T09:25:59;13.80;;;10.50;;
75550;SDS011;64135;53.130;17.972;2022-10-31T09:28:36;14.70;;;11.40;;
75550;SDS011;64135;53.130;17.972;2022-10-31T09:31:08;14.20;;;10.30;;
75550;SDS011;64135;53.130;17.972;2022-10-31T09:33:54;11.20;;;9.70;;
75550;SDS011;64135;53.130;17.972;2022-10-31T09:36:36;16.10;;;11.30;;
75550;SDS011;64135;53.130;17.972;2022-10-31T09:39:05;12.10;;;9.50;;
75550;SDS011;64135;53.130;17.972;2022-10-31T09:50:25;12.90;;;10.80;;
75550;SDS011;64135;53.130;17.972;2022-10-31T09:53:04;16.90;;;11.40;;
75550;SDS011;64135;53.130;17.972;2022-10-31T09:55:38;16.80;;;12.30;;
75550;SDS011;64135;53.130;17.972;2022-10-31T09:58:13;17.00;;;12.30;;
75550;SDS011;64135;53.130;17.972;2022-10-31T10:00:42;17.10;;;12.50;;
75550;SDS011;64135;53.130;17.972;2022-10-31T10:08:55;15.40;;;11.40;;
75550;SDS011;64135;53.130;17.972;2022-10-31T10:25:22;11.90;;;8.90;;
75550;SDS011;64135;53.130;17.972;2022-10-31T10:35:35;16.00;;;11.00;;
75550;SDS011;64135;53.130;17.972;2022-10-31T10:40:51;19.00;;;12.90;;
75550;SDS011;64135;53.130;17.972;2022-10-31T10:46:40;20.50;;;13.70;;
75550;SDS011;64135;53.130;17.972;2022-10-31T10:51:49;18.10;;;12.10;;
75550;SDS011;64135;53.130;17.972;2022-10-31T10:59:44;18.10;;;12.20;;
75550;SDS011;64135;53.130;17.972;2022-10-31T11:02:33;16.90;;;12.00;;
75550;SDS011;64135;53.130;17.972;2022-10-31T11:05:00;18.70;;;12.90;;
75550;SDS011;64135;53.130;17.972;2022-10-31T11:07:37;15.70;;;9.80;;
75550;SDS011;64135;53.130;17.972;2022-10-31T11:10:05;24.10;;;14.50;;
75550;SDS011;64135;53.130;17.972;2022-10-31T11:12:39;22.80;;;14.10;;
75550;SDS011;64135;53.130;17.972;2022-10-31T11:15:20;17.80;;;11.70;;
75550;SDS011;64135;53.130;17.972;2022-10-31T11:17:49;21.90;;;14.40;;
75550;SDS011;64135;53.130;17.972;2022-10-31T11:22:47;23.20;;;13.40;;
75550;SDS011;64135;53.130;17.972;2022-10-31T11:25:24;21.50;;;13.60;;
75550;SDS011;64135;53.130;17.972;2022-10-31T11:30:28;16.40;;;11.80;;
75550;SDS011;64135;53.130;17.972;2022-10-31T11:32:56;20.50;;;13.10;;
75550;SDS011;64135;53.130;17.972;2022-10-31T11:35:23;22.40;;;14.10;;
75550;SDS011;64135;53.130;17.972;2022-10-31T11:37:52;19.60;;;12.50;;
75550;SDS011;64135;53.130;17.972;2022-10-31T11:40:21;24.20;;;15.10;;
75550;SDS011;64135;53.130;17.972;2022-10-31T11:42:51;22.40;;;14.00;;
75550;SDS011;64135;53.130;17.972;2022-10-31T11:47:49;19.30;;;14.00;;
75550;SDS011;64135;53.130;17.972;2022-10-31T11:50:25;18.10;;;12.20;;
75550;SDS011;64135;53.130;17.972;2022-10-31T11:52:54;20.40;;;12.70;;
75550;SDS011;64135;53.130;17.972;2022-10-31T11:57:59;18.30;;;12.30;;
75550;SDS011;64135;53.130;17.972;2022-10-31T12:00:30;24.00;;;13.90;;
75550;SDS011;64135;53.130;17.972;2022-10-31T12:06:34;22.50;;;14.40;;
75550;SDS011;64135;53.130;17.972;2022-10-31T12:08:38;19.00;;;11.90;;
75550;SDS011;64135;53.130;17.972;2022-10-31T13:00:20;36.10;;;17.50;;
75550;SDS011;64135;53.130;17.972;2022-10-31T13:13:47;28.80;;;14.80;;
75550;SDS011;64135;53.130;17.972;2022-10-31T13:16:18;31.60;;;16.80;;
75550;SDS011;64135;53.130;17.972;2022-10-31T13:18:48;38.60;;;18.50;;
75550;SDS011;64135;53.130;17.972;2022-10-31T13:21:26;34.20;;;16.70;;
75550;SDS011;64135;53.130;17.972;2022-10-31T13:23:57;37.40;;;17.70;;
75550;SDS011;64135;53.130;17.972;2022-10-31T13:26:42;33.10;;;16.50;;
75550;SDS011;64135;53.130;17.972;2022-10-31T13:31:42;32.20;;;15.80;;
75550;SDS011;64135;53.130;17.972;2022-10-31T13:34:12;30.40;;;15.70;;
75550;SDS011;64135;53.130;17.972;2022-10-31T13:37:04;30.80;;;15.40;;
75550;SDS011;64135;53.130;17.972;2022-10-31T13:42:18;39.00;;;19.30;;
75550;SDS011;64135;53.130;17.972;2022-10-31T13:44:49;35.30;;;17.30;;
75550;SDS011;64135;53.130;17.972;2022-10-31T13:52:49;35.30;;;16.10;;
75550;SDS011;64135;53.130;17.972;2022-10-31T13:58:30;30.70;;;15.00;;
75550;SDS011;64135;53.130;17.972;2022-10-31T14:03:36;32.90;;;16.10;;
75550;SDS011;64135;53.130;17.972;2022-10-31T14:06:04;31.40;;;15.00;;
75550;SDS011;64135;53.130;17.972;2022-10-31T14:08:33;32.60;;;15.90;;
75550;SDS011;64135;53.130;17.972;2022-10-31T14:11:01;30.70;;;15.50;;
75550;SDS011;64135;53.130;17.972;2022-10-31T14:13:38;32.70;;;15.20;;
75550;SDS011;64135;53.130;17.972;2022-10-31T14:18:46;33.90;;;15.80;;
75550;SDS011;64135;53.130;17.972;2022-10-31T14:23:51;38.50;;;17.10;;
75550;SDS011;64135;53.130;17.972;2022-10-31T14:29:01;35.00;;;16.10;;
75550;SDS011;64135;53.130;17.972;2022-10-31T14:34:40;36.90;;;17.40;;
75550;SDS011;64135;53.130;17.972;2022-10-31T14:40:14;33.40;;;16.00;;
75550;SDS011;64135;53.130;17.972;2022-10-31T14:43:12;37.20;;;17.90;;
75550;SDS011;64135;53.130;17.972;2022-10-31T14:48:39;38.70;;;18.20;;
75550;SDS011;64135;53.130;17.972;2022-10-31T14:51:11;37.60;;;17.10;;
75550;SDS011;64135;53.130;17.972;2022-10-31T14:53:45;38.00;;;17.30;;
75550;SDS011;64135;53.130;17.972;2022-10-31T14:56:14;36.50;;;17.00;;
75550;SDS011;64135;53.130;17.972;2022-10-31T14:58:46;34.90;;;16.70;;
75550;SDS011;64135;53.130;17.972;2022-10-31T15:01:19;38.20;;;18.20;;
75550;SDS011;64135;53.130;17.972;2022-10-31T15:03:58;34.50;;;17.00;;
75550;SDS011;64135;53.130;17.972;2022-10-31T15:06:30;37.40;;;17.90;;
75550;SDS011;64135;53.130;17.972;2022-10-31T15:11:59;47.00;;;20.50;;
75550;SDS011;64135;53.130;17.972;2022-10-31T15:14:30;47.80;;;23.70;;
75550;SDS011;64135;53.130;17.972;2022-10-31T15:16:58;41.50;;;19.60;;
75550;SDS011;64135;53.130;17.972;2022-10-31T15:19:26;43.80;;;20.50;;
75550;SDS011;64135;53.130;17.972;2022-10-31T15:21:54;44.30;;;21.60;;
75550;SDS011;64135;53.130;17.972;2022-10-31T15:24:23;43.20;;;20.90;;
75550;SDS011;64135;53.130;17.972;2022-10-31T15:26:52;51.00;;;22.60;;
75550;SDS011;64135;53.130;17.972;2022-10-31T15:29:23;41.70;;;20.00;;
75550;SDS011;64135;53.130;17.972;2022-10-31T15:34:39;38.40;;;18.90;;
75550;SDS011;64135;53.130;17.972;2022-10-31T15:37:12;42.90;;;20.40;;
75550;SDS011;64135;53.130;17.972;2022-10-31T15:39:43;36.70;;;18.60;;
75550;SDS011;64135;53.130;17.972;2022-10-31T15:42:18;45.60;;;20.50;;
75550;SDS011;64135;53.130;17.972;2022-10-31T15:47:35;33.20;;;16.60;;
75550;SDS011;64135;53.130;17.972;2022-10-31T15:50:04;34.70;;;16.60;;
75550;SDS011;64135;53.130;17.972;2022-10-31T15:52:45;36.80;;;17.10;;
75550;SDS011;64135;53.130;17.972;2022-10-31T15:55:21;37.80;;;18.30;;
75550;SDS011;64135;53.130;17.972;2022-10-31T15:57:50;39.90;;;19.40;;
75550;SDS011;64135;53.130;17.972;2022-10-31T16:05:34;36.60;;;16.70;;
75550;SDS011;64135;53.130;17.972;2022-10-31T16:08:02;27.80;;;13.90;;
75550;SDS011;64135;53.130;17.972;2022-10-31T16:10:32;27.40;;;14.60;;
75550;SDS011;64135;53.130;17.972;2022-10-31T16:13:00;29.00;;;15.20;;
75550;SDS011;64135;53.130;17.972;2022-10-31T16:15:28;24.10;;;13.50;;
75550;SDS011;64135;53.130;17.972;2022-10-31T16:17:56;25.50;;;13.20;;
75550;SDS011;64135;53.130;17.972;2022-10-31T16:20:23;30.10;;;14.80;;
75550;SDS011;64135;53.130;17.972;2022-10-31T16:22:53;30.70;;;14.90;;
75550;SDS011;64135;53.130;17.972;2022-10-31T16:25:28;25.90;;;13.60;;
75550;SDS011;64135;53.130;17.972;2022-10-31T16:28:04;30.00;;;14.80;;
75550;SDS011;64135;53.130;17.972;2022-10-31T16:30:39;26.60;;;13.50;;
75550;SDS011;64135;53.130;17.972;2022-10-31T16:35:55;26.10;;;13.00;;
75550;SDS011;64135;53.130;17.972;2022-10-31T16:38:23;22.90;;;11.10;;
75550;SDS011;64135;53.130;17.972;2022-10-31T16:40:50;23.80;;;12.10;;
75550;SDS011;64135;53.130;17.972;2022-10-31T16:43:17;27.50;;;13.30;;
75550;SDS011;64135;53.130;17.972;2022-10-31T16:45:49;21.70;;;11.40;;
75550;SDS011;64135;53.130;17.972;2022-10-31T16:48:18;21.10;;;11.40;;
75550;SDS011;64135;53.130;17.972;2022-10-31T16:50:47;21.90;;;11.30;;
75550;SDS011;64135;53.130;17.972;2022-10-31T16:53:14;26.70;;;13.00;;
75550;SDS011;64135;53.130;17.972;2022-10-31T16:55:55;22.10;;;10.60;;
75550;SDS011;64135;53.130;17.972;2022-10-31T17:00:58;22.80;;;11.70;;
75550;SDS011;64135;53.130;17.972;2022-10-31T17:03:26;25.80;;;11.70;;
75550;SDS011;64135;53.130;17.972;2022-10-31T17:05:52;23.70;;;10.90;;
75550;SDS011;64135;53.130;17.972;2022-10-31T17:08:21;21.50;;;11.20;;
75550;SDS011;64135;53.130;17.972;2022-10-31T17:10:50;19.30;;;10.20;;
75550;SDS011;64135;53.130;17.972;2022-10-31T17:13:19;16.10;;;9.60;;
75550;SDS011;64135;53.130;17.972;2022-10-31T17:15:49;17.60;;;10.10;;
75550;SDS011;64135;53.130;17.972;2022-10-31T17:18:17;21.90;;;10.60;;
75550;SDS011;64135;53.130;17.972;2022-10-31T17:20:45;19.60;;;10.60;;
75550;SDS011;64135;53.130;17.972;2022-10-31T17:23:12;24.60;;;12.80;;
75550;SDS011;64135;53.130;17.972;2022-10-31T17:25:40;23.60;;;10.50;;
75550;SDS011;64135;53.130;17.972;2022-10-31T17:28:10;18.20;;;10.00;;
75550;SDS011;64135;53.130;17.972;2022-10-31T17:30:39;21.60;;;11.10;;
75550;SDS011;64135;53.130;17.972;2022-10-31T17:33:10;19.10;;;10.60;;
75550;SDS011;64135;53.130;17.972;2022-10-31T17:35:38;25.70;;;11.60;;
75550;SDS011;64135;53.130;17.972;2022-10-31T17:38:04;21.30;;;11.20;;
75550;SDS011;64135;53.130;17.972;2022-10-31T17:40:31;20.70;;;11.20;;
75550;SDS011;64135;53.130;17.972;2022-10-31T17:42:58;18.20;;;9.60;;
75550;SDS011;64135;53.130;17.972;2022-10-31T17:45:25;19.80;;;9.60;;
75550;SDS011;64135;53.130;17.972;2022-10-31T17:47:52;18.70;;;8.60;;
75550;SDS011;64135;53.130;17.972;2022-10-31T17:50:20;15.30;;;9.10;;
75550;SDS011;64135;53.130;17.972;2022-10-31T17:55:15;18.80;;;9.70;;
75550;SDS011;64135;53.130;17.972;2022-10-31T17:57:42;18.10;;;9.30;;
75550;SDS011;64135;53.130;17.972;2022-10-31T18:00:11;15.40;;;8.20;;
75550;SDS011;64135;53.130;17.972;2022-10-31T18:05:05;19.20;;;9.40;;
75550;SDS011;64135;53.130;17.972;2022-10-31T18:07:32;19.70;;;9.50;;
75550;SDS011;64135;53.130;17.972;2022-10-31T18:09:59;25.50;;;12.40;;